sensor_id;sensor_type;location;lat;lon;timestamp;pressure;altitude;pressure_sealevel;temperature
73673;BMP280;61972;19.480;-99.240;2024-03-02T00:00:49;77657.13;;;27.29
73673;BMP280;61972;19.480;-99.240;2024-03-02T00:03:19;77658.25;;;27.30
73673;BMP280;61972;19.480;-99.240;2024-03-02T00:05:54;77663.50;;;27.30
73673;BMP280;61972;19.480;-99.240;2024-03-02T00:08:25;77666.13;;;27.30
73673;BMP280;61972;19.480;-99.240;2024-03-02T00:11:05;77675.50;;;27.29
73673;BMP280;61972;19.480;-99.240;2024-03-02T00:13:31;77681.88;;;27.30
73673;BMP280;61972;19.480;-99.240;2024-03-02T00:15:58;77689.72;;;27.30
73673;BMP280;61972;19.480;-99.240;2024-03-02T00:18:31;77689.72;;;27.30
73673;BMP280;61972;19.480;-99.240;2024-03-02T00:20:58;77692.34;;;27.30
73673;BMP280;61972;19.480;-99.240;2024-03-02T00:23:27;77688.63;;;27.29
73673;BMP280;61972;19.480;-99.240;2024-03-02T00:25:55;77692.91;;;27.31
73673;BMP280;61972;19.480;-99.240;2024-03-02T00:28:35;77688.63;;;27.29
73673;BMP280;61972;19.480;-99.240;2024-03-02T00:33:45;77702.84;;;27.30
73673;BMP280;61972;19.480;-99.240;2024-03-02T00:36:22;77706.03;;;27.31
73673;BMP280;61972;19.480;-99.240;2024-03-02T00:38:50;77703.97;;;27.31
73673;BMP280;61972;19.480;-99.240;2024-03-02T00:41:44;77692.34;;;27.30
73673;BMP280;61972;19.480;-99.240;2024-03-02T00:44:13;77701.34;;;27.31
73673;BMP280;61972;19.480;-99.240;2024-03-02T00:46:42;77707.13;;;27.32
73673;BMP280;61972;19.480;-99.240;2024-03-02T00:49:23;77722.34;;;27.31
73673;BMP280;61972;19.480;-99.240;2024-03-02T00:51:51;77722.88;;;27.32
73673;BMP280;61972;19.480;-99.240;2024-03-02T00:54:26;77726.47;;;27.30
73673;BMP280;61972;19.480;-99.240;2024-03-02T00:56:54;77727.59;;;27.31
73673;BMP280;61972;19.480;-99.240;2024-03-02T00:59:22;77732.84;;;27.31
73673;BMP280;61972;19.480;-99.240;2024-03-02T01:01:53;77730.75;;;27.32
73673;BMP280;61972;19.480;-99.240;2024-03-02T01:04:20;77733.94;;;27.32
73673;BMP280;61972;19.480;-99.240;2024-03-02T01:06:46;77727.59;;;27.31
73673;BMP280;61972;19.480;-99.240;2024-03-02T01:09:12;77720.25;;;27.32
73673;BMP280;61972;19.480;-99.240;2024-03-02T01:11:38;77723.44;;;27.32
73673;BMP280;61972;19.480;-99.240;2024-03-02T01:14:05;77728.69;;;27.32
73673;BMP280;61972;19.480;-99.240;2024-03-02T01:16:31;77731.31;;;27.32
73673;BMP280;61972;19.480;-99.240;2024-03-02T01:18:57;77738.06;;;27.31
73673;BMP280;61972;19.480;-99.240;2024-03-02T01:21:23;77732.84;;;27.31
73673;BMP280;61972;19.480;-99.240;2024-03-02T01:23:49;77749.66;;;27.32
73673;BMP280;61972;19.480;-99.240;2024-03-02T01:26:15;77751.19;;;27.31
73673;BMP280;61972;19.480;-99.240;2024-03-02T01:28:42;77749.66;;;27.32
73673;BMP280;61972;19.480;-99.240;2024-03-02T01:31:11;77749.13;;;27.32
73673;BMP280;61972;19.480;-99.240;2024-03-02T01:34:02;77753.81;;;27.31
73673;BMP280;61972;19.480;-99.240;2024-03-02T01:36:31;77748.56;;;27.31
73673;BMP280;61972;19.480;-99.240;2024-03-02T01:38:58;77750.06;;;27.30
73673;BMP280;61972;19.480;-99.240;2024-03-02T01:41:25;77762.25;;;27.32
73673;BMP280;61972;19.480;-99.240;2024-03-02T01:43:51;77760.16;;;27.32
73673;BMP280;61972;19.480;-99.240;2024-03-02T01:46:17;77759.06;;;27.31
73673;BMP280;61972;19.480;-99.240;2024-03-02T01:48:44;77765.41;;;27.32
73673;BMP280;61972;19.480;-99.240;2024-03-02T01:51:13;77764.31;;;27.31
73673;BMP280;61972;19.480;-99.240;2024-03-02T01:53:39;77765.41;;;27.32
73673;BMP280;61972;19.480;-99.240;2024-03-02T01:56:05;77764.88;;;27.32
73673;BMP280;61972;19.480;-99.240;2024-03-02T01:58:31;77771.78;;;27.33
73673;BMP280;61972;19.480;-99.240;2024-03-02T02:00:57;77775.91;;;27.32
73673;BMP280;61972;19.480;-99.240;2024-03-02T02:03:25;77772.19;;;27.31
73673;BMP280;61972;19.480;-99.240;2024-03-02T02:05:51;77766.38;;;27.31
73673;BMP280;61972;19.480;-99.240;2024-03-02T02:08:17;77769.56;;;27.31
73673;BMP280;61972;19.480;-99.240;2024-03-02T02:10:43;77770.13;;;27.32
73673;BMP280;61972;19.480;-99.240;2024-03-02T02:13:09;77770.66;;;27.32
73673;BMP280;61972;19.480;-99.240;2024-03-02T02:15:38;77777.44;;;27.31
73673;BMP280;61972;19.480;-99.240;2024-03-02T02:18:05;77772.75;;;27.32
73673;BMP280;61972;19.480;-99.240;2024-03-02T02:20:31;77781.72;;;27.33
73673;BMP280;61972;19.480;-99.240;2024-03-02T02:22:59;77783.78;;;27.32
73673;BMP280;61972;19.480;-99.240;2024-03-02T02:25:26;77787.53;;;27.33
73673;BMP280;61972;19.480;-99.240;2024-03-02T02:27:53;77788.66;;;27.35
73673;BMP280;61972;19.480;-99.240;2024-03-02T02:30:24;77793.91;;;27.35
73673;BMP280;61972;19.480;-99.240;2024-03-02T02:32:50;77804.38;;;27.35
73673;BMP280;61972;19.480;-99.240;2024-03-02T02:35:16;77809.63;;;27.35
73673;BMP280;61972;19.480;-99.240;2024-03-02T02:37:43;77807.56;;;27.35
73673;BMP280;61972;19.480;-99.240;2024-03-02T02:40:11;77814.31;;;27.34
73673;BMP280;61972;19.480;-99.240;2024-03-02T02:42:38;77821.63;;;27.33
73673;BMP280;61972;19.480;-99.240;2024-03-02T02:45:05;77809.47;;;27.32
73673;BMP280;61972;19.480;-99.240;2024-03-02T02:47:31;77819.00;;;27.33
73673;BMP280;61972;19.480;-99.240;2024-03-02T02:50:04;77817.09;;;27.37
73673;BMP280;61972;19.480;-99.240;2024-03-02T02:52:34;77822.41;;;27.46
73673;BMP280;61972;19.480;-99.240;2024-03-02T02:55:04;77841.00;;;27.59
73673;BMP280;61972;19.480;-99.240;2024-03-02T02:57:31;77831.97;;;27.75
73673;BMP280;61972;19.480;-99.240;2024-03-02T03:00:08;77835.13;;;27.92
73673;BMP280;61972;19.480;-99.240;2024-03-02T03:03:02;77841.88;;;28.18
73673;BMP280;61972;19.480;-99.240;2024-03-02T03:05:53;77841.44;;;28.47
73673;BMP280;61972;19.480;-99.240;2024-03-02T03:08:44;77846.25;;;28.75
73673;BMP280;61972;19.480;-99.240;2024-03-02T03:11:35;77857.94;;;29.06
73673;BMP280;61972;19.480;-99.240;2024-03-02T03:14:06;77862.13;;;29.34
73673;BMP280;61972;19.480;-99.240;2024-03-02T03:16:32;77857.72;;;29.59
73673;BMP280;61972;19.480;-99.240;2024-03-02T03:18:58;77866.59;;;29.87
73673;BMP280;61972;19.480;-99.240;2024-03-02T03:21:24;77865.28;;;30.12
73673;BMP280;61972;19.480;-99.240;2024-03-02T03:23:51;77859.72;;;30.37
73673;BMP280;61972;19.480;-99.240;2024-03-02T03:26:21;77872.00;;;30.60
73673;BMP280;61972;19.480;-99.240;2024-03-02T03:28:47;77875.81;;;30.83
73673;BMP280;61972;19.480;-99.240;2024-03-02T03:31:13;77882.63;;;31.04
73673;BMP280;61972;19.480;-99.240;2024-03-02T03:33:39;77885.75;;;31.24
73673;BMP280;61972;19.480;-99.240;2024-03-02T03:36:05;77894.66;;;31.45
73673;BMP280;61972;19.480;-99.240;2024-03-02T03:38:31;77896.19;;;31.66
73673;BMP280;61972;19.480;-99.240;2024-03-02T03:40:57;77897.72;;;31.87
73673;BMP280;61972;19.480;-99.240;2024-03-02T03:43:23;77894.94;;;32.06
73673;BMP280;61972;19.480;-99.240;2024-03-02T03:45:50;77895.22;;;32.24
73673;BMP280;61972;19.480;-99.240;2024-03-02T03:48:16;77893.81;;;32.40
73673;BMP280;61972;19.480;-99.240;2024-03-02T03:50:42;77906.09;;;32.54
73673;BMP280;61972;19.480;-99.240;2024-03-02T03:53:08;77906.09;;;32.66
73673;BMP280;61972;19.480;-99.240;2024-03-02T03:55:34;77910.06;;;32.72
73673;BMP280;61972;19.480;-99.240;2024-03-02T03:58:00;77907.66;;;32.77
73673;BMP280;61972;19.480;-99.240;2024-03-02T04:00:27;77908.88;;;32.81
73673;BMP280;61972;19.480;-99.240;2024-03-02T04:02:53;77915.50;;;32.87
73673;BMP280;61972;19.480;-99.240;2024-03-02T04:05:19;77917.94;;;32.94
73673;BMP280;61972;19.480;-99.240;2024-03-02T04:07:45;77915.63;;;33.02
73673;BMP280;61972;19.480;-99.240;2024-03-02T04:10:11;77917.72;;;33.14
73673;BMP280;61972;19.480;-99.240;2024-03-02T04:12:38;77926.66;;;33.24
73673;BMP280;61972;19.480;-99.240;2024-03-02T04:15:08;77927.00;;;33.32
73673;BMP280;61972;19.480;-99.240;2024-03-02T04:17:34;77922.44;;;33.38
73673;BMP280;61972;19.480;-99.240;2024-03-02T04:20:01;77933.28;;;33.43
73673;BMP280;61972;19.480;-99.240;2024-03-02T04:22:33;77932.41;;;33.47
73673;BMP280;61972;19.480;-99.240;2024-03-02T04:25:00;77933.63;;;33.51
73673;BMP280;61972;19.480;-99.240;2024-03-02T04:27:29;77933.19;;;33.53
73673;BMP280;61972;19.480;-99.240;2024-03-02T04:29:55;77938.47;;;33.53
73673;BMP280;61972;19.480;-99.240;2024-03-02T04:32:21;77943.66;;;33.50
73673;BMP280;61972;19.480;-99.240;2024-03-02T04:34:47;77940.81;;;33.45
73673;BMP280;61972;19.480;-99.240;2024-03-02T04:37:13;77929.88;;;33.37
73673;BMP280;61972;19.480;-99.240;2024-03-02T04:39:40;77923.13;;;33.29
73673;BMP280;61972;19.480;-99.240;2024-03-02T04:42:06;77927.44;;;33.18
73673;BMP280;61972;19.480;-99.240;2024-03-02T04:44:32;77931.19;;;33.06
73673;BMP280;61972;19.480;-99.240;2024-03-02T04:46:58;77932.72;;;32.93
73673;BMP280;61972;19.480;-99.240;2024-03-02T04:49:24;77927.97;;;32.81
73673;BMP280;61972;19.480;-99.240;2024-03-02T04:51:53;77941.84;;;32.72
73673;BMP280;61972;19.480;-99.240;2024-03-02T04:54:20;77938.84;;;32.64
73673;BMP280;61972;19.480;-99.240;2024-03-02T04:56:46;77946.13;;;32.61
73673;BMP280;61972;19.480;-99.240;2024-03-02T04:59:18;77945.03;;;32.60
73673;BMP280;61972;19.480;-99.240;2024-03-02T05:01:45;77935.56;;;32.61
73673;BMP280;61972;19.480;-99.240;2024-03-02T05:04:14;77944.16;;;32.64
73673;BMP280;61972;19.480;-99.240;2024-03-02T05:06:41;77941.28;;;32.72
73673;BMP280;61972;19.480;-99.240;2024-03-02T05:09:08;77945.41;;;32.80
73673;BMP280;61972;19.480;-99.240;2024-03-02T05:11:35;77945.28;;;32.90
73673;BMP280;61972;19.480;-99.240;2024-03-02T05:14:06;77944.66;;;32.99
73673;BMP280;61972;19.480;-99.240;2024-03-02T05:16:34;77946.09;;;33.08
73673;BMP280;61972;19.480;-99.240;2024-03-02T05:19:01;77946.41;;;33.16
73673;BMP280;61972;19.480;-99.240;2024-03-02T05:21:27;77947.31;;;33.24
73673;BMP280;61972;19.480;-99.240;2024-03-02T05:23:53;77950.19;;;33.29
73673;BMP280;61972;19.480;-99.240;2024-03-02T05:26:19;77946.75;;;33.36
73673;BMP280;61972;19.480;-99.240;2024-03-02T05:28:45;77938.59;;;33.43
73673;BMP280;61972;19.480;-99.240;2024-03-02T05:31:17;77946.88;;;33.51
73673;BMP280;61972;19.480;-99.240;2024-03-02T05:33:43;77946.75;;;33.60
73673;BMP280;61972;19.480;-99.240;2024-03-02T05:36:09;77953.47;;;33.69
73673;BMP280;61972;19.480;-99.240;2024-03-02T06:03:35;77942.78;;;34.06
73673;BMP280;61972;19.480;-99.240;2024-03-02T06:06:01;77942.16;;;33.91
73673;BMP280;61972;19.480;-99.240;2024-03-02T06:08:27;77949.94;;;33.73
73673;BMP280;61972;19.480;-99.240;2024-03-02T06:10:53;77952.38;;;33.56
73673;BMP280;61972;19.480;-99.240;2024-03-02T06:13:20;77950.63;;;33.39
73673;BMP280;61972;19.480;-99.240;2024-03-02T06:15:46;77946.09;;;33.20
73673;BMP280;61972;19.480;-99.240;2024-03-02T06:18:12;77942.66;;;33.02
73673;BMP280;61972;19.480;-99.240;2024-03-02T06:20:38;77943.97;;;32.84
73673;BMP280;61972;19.480;-99.240;2024-03-02T06:23:04;77945.22;;;32.65
73673;BMP280;61972;19.480;-99.240;2024-03-02T06:25:31;77940.81;;;32.49
73673;BMP280;61972;19.480;-99.240;2024-03-02T06:27:57;77940.97;;;32.29
73673;BMP280;61972;19.480;-99.240;2024-03-02T06:30:23;77942.88;;;32.14
73673;BMP280;61972;19.480;-99.240;2024-03-02T06:32:49;77945.25;;;31.97
73673;BMP280;61972;19.480;-99.240;2024-03-02T06:35:15;77937.00;;;31.79
73673;BMP280;61972;19.480;-99.240;2024-03-02T06:37:41;77938.91;;;31.64
73673;BMP280;61972;19.480;-99.240;2024-03-02T06:40:08;77935.50;;;31.48
73673;BMP280;61972;19.480;-99.240;2024-03-02T06:42:34;77934.31;;;31.35
73673;BMP280;61972;19.480;-99.240;2024-03-02T06:45:02;77931.50;;;31.20
73673;BMP280;61972;19.480;-99.240;2024-03-02T06:47:28;77925.53;;;31.07
73673;BMP280;61972;19.480;-99.240;2024-03-02T06:49:55;77930.19;;;30.95
73673;BMP280;61972;19.480;-99.240;2024-03-02T06:52:22;77928.00;;;30.83
73673;BMP280;61972;19.480;-99.240;2024-03-02T06:54:48;77926.25;;;30.69
73673;BMP280;61972;19.480;-99.240;2024-03-02T06:57:15;77918.91;;;30.60
73673;BMP280;61972;19.480;-99.240;2024-03-02T06:59:42;77923.09;;;30.49
73673;BMP280;61972;19.480;-99.240;2024-03-02T07:02:08;77923.13;;;30.39
73673;BMP280;61972;19.480;-99.240;2024-03-02T07:04:34;77918.97;;;30.30
73673;BMP280;61972;19.480;-99.240;2024-03-02T07:07:00;77920.66;;;30.22
73673;BMP280;61972;19.480;-99.240;2024-03-02T07:09:27;77922.28;;;30.14
73673;BMP280;61972;19.480;-99.240;2024-03-02T07:11:53;77919.81;;;30.07
73673;BMP280;61972;19.480;-99.240;2024-03-02T07:14:19;77919.97;;;30.00
73673;BMP280;61972;19.480;-99.240;2024-03-02T07:16:45;77914.84;;;29.92
73673;BMP280;61972;19.480;-99.240;2024-03-02T07:19:11;77912.34;;;29.85
73673;BMP280;61972;19.480;-99.240;2024-03-02T07:21:37;77905.69;;;29.79
73673;BMP280;61972;19.480;-99.240;2024-03-02T07:24:03;77898.47;;;29.72
73673;BMP280;61972;19.480;-99.240;2024-03-02T07:26:30;77895.56;;;29.67
73673;BMP280;61972;19.480;-99.240;2024-03-02T07:28:57;77888.91;;;29.61
73673;BMP280;61972;19.480;-99.240;2024-03-02T07:31:23;77888.63;;;29.56
73673;BMP280;61972;19.480;-99.240;2024-03-02T07:33:49;77894.16;;;29.51
73673;BMP280;61972;19.480;-99.240;2024-03-02T07:36:15;77885.97;;;29.46
73673;BMP280;61972;19.480;-99.240;2024-03-02T07:38:42;77885.69;;;29.41
73673;BMP280;61972;19.480;-99.240;2024-03-02T07:41:10;77878.06;;;29.36
73673;BMP280;61972;19.480;-99.240;2024-03-02T07:43:36;77876.84;;;29.33
73673;BMP280;61972;19.480;-99.240;2024-03-02T07:46:03;77881.41;;;29.30
73673;BMP280;61972;19.480;-99.240;2024-03-02T07:48:29;77868.63;;;29.28
73673;BMP280;61972;19.480;-99.240;2024-03-02T07:50:56;77874.31;;;29.26
73673;BMP280;61972;19.480;-99.240;2024-03-02T07:53:22;77876.25;;;29.23
73673;BMP280;61972;19.480;-99.240;2024-03-02T07:55:48;77870.44;;;29.22
73673;BMP280;61972;19.480;-99.240;2024-03-02T07:58:14;77861.97;;;29.21
73673;BMP280;61972;19.480;-99.240;2024-03-02T08:00:41;77858.25;;;29.20
73673;BMP280;61972;19.480;-99.240;2024-03-02T08:03:07;77858.25;;;29.20
73673;BMP280;61972;19.480;-99.240;2024-03-02T08:05:37;77857.28;;;29.22
73673;BMP280;61972;19.480;-99.240;2024-03-02T08:08:04;77855.19;;;29.23
73673;BMP280;61972;19.480;-99.240;2024-03-02T08:10:30;77859.63;;;29.27
73673;BMP280;61972;19.480;-99.240;2024-03-02T08:12:56;77851.31;;;29.29
73673;BMP280;61972;19.480;-99.240;2024-03-02T08:15:23;77854.25;;;29.34
73673;BMP280;61972;19.480;-99.240;2024-03-02T08:17:49;77848.84;;;29.41
73673;BMP280;61972;19.480;-99.240;2024-03-02T08:20:15;77856.19;;;29.50
73673;BMP280;61972;19.480;-99.240;2024-03-02T08:22:42;77854.66;;;29.61
73673;BMP280;61972;19.480;-99.240;2024-03-02T08:25:08;77851.03;;;29.72
73673;BMP280;61972;19.480;-99.240;2024-03-02T08:27:35;77861.16;;;29.84
73673;BMP280;61972;19.480;-99.240;2024-03-02T08:30:01;77851.31;;;29.97
73673;BMP280;61972;19.480;-99.240;2024-03-02T08:32:31;77848.94;;;30.12
73673;BMP280;61972;19.480;-99.240;2024-03-02T08:34:57;77846.00;;;30.26
73673;BMP280;61972;19.480;-99.240;2024-03-02T08:37:24;77851.50;;;30.41
73673;BMP280;61972;19.480;-99.240;2024-03-02T08:39:50;77846.19;;;30.51
73673;BMP280;61972;19.480;-99.240;2024-03-02T08:42:16;77846.59;;;30.59
73673;BMP280;61972;19.480;-99.240;2024-03-02T08:44:43;77848.38;;;30.63
73673;BMP280;61972;19.480;-99.240;2024-03-02T08:47:09;77848.50;;;30.65
73673;BMP280;61972;19.480;-99.240;2024-03-02T08:49:35;77848.06;;;30.67
73673;BMP280;61972;19.480;-99.240;2024-03-02T08:52:01;77851.38;;;30.70
73673;BMP280;61972;19.480;-99.240;2024-03-02T08:54:27;77844.16;;;30.73
73673;BMP280;61972;19.480;-99.240;2024-03-02T08:56:53;77845.28;;;30.74
73673;BMP280;61972;19.480;-99.240;2024-03-02T08:59:20;77841.09;;;30.76
73673;BMP280;61972;19.480;-99.240;2024-03-02T09:01:46;77833.28;;;30.78
73673;BMP280;61972;19.480;-99.240;2024-03-02T09:04:12;77836.63;;;30.81
73673;BMP280;61972;19.480;-99.240;2024-03-02T09:06:38;77829.25;;;30.82
73673;BMP280;61972;19.480;-99.240;2024-03-02T09:09:04;77825.78;;;30.86
73673;BMP280;61972;19.480;-99.240;2024-03-02T09:11:33;77823.81;;;30.89
73673;BMP280;61972;19.480;-99.240;2024-03-02T09:14:00;77829.34;;;30.94
73673;BMP280;61972;19.480;-99.240;2024-03-02T09:16:26;77830.13;;;31.00
73673;BMP280;61972;19.480;-99.240;2024-03-02T09:18:56;77831.19;;;31.10
73673;BMP280;61972;19.480;-99.240;2024-03-02T09:21:25;77837.84;;;31.17
73673;BMP280;61972;19.480;-99.240;2024-03-02T09:23:51;77834.75;;;31.19
73673;BMP280;61972;19.480;-99.240;2024-03-02T09:26:17;77828.91;;;31.18
73673;BMP280;61972;19.480;-99.240;2024-03-02T09:28:45;77839.38;;;31.16
73673;BMP280;61972;19.480;-99.240;2024-03-02T09:31:11;77839.81;;;31.13
73673;BMP280;61972;19.480;-99.240;2024-03-02T09:33:37;77840.22;;;31.11
73673;BMP280;61972;19.480;-99.240;2024-03-02T09:36:05;77835.78;;;31.07
73673;BMP280;61972;19.480;-99.240;2024-03-02T09:38:34;77834.44;;;31.01
73673;BMP280;61972;19.480;-99.240;2024-03-02T09:41:00;77843.09;;;30.95
73673;BMP280;61972;19.480;-99.240;2024-03-02T09:43:27;77839.09;;;30.88
73673;BMP280;61972;19.480;-99.240;2024-03-02T09:45:53;77840.25;;;30.80
73673;BMP280;61972;19.480;-99.240;2024-03-02T09:48:19;77842.53;;;30.72
73673;BMP280;61972;19.480;-99.240;2024-03-02T09:50:46;77839.47;;;30.64
73673;BMP280;61972;19.480;-99.240;2024-03-02T09:53:14;77833.41;;;30.59
73673;BMP280;61972;19.480;-99.240;2024-03-02T09:55:40;77838.84;;;30.51
73673;BMP280;61972;19.480;-99.240;2024-03-02T09:58:09;77834.28;;;30.45
73673;BMP280;61972;19.480;-99.240;2024-03-02T10:00:35;77837.06;;;30.38
73673;BMP280;61972;19.480;-99.240;2024-03-02T10:03:02;77836.81;;;30.32
73673;BMP280;61972;19.480;-99.240;2024-03-02T10:05:28;77832.34;;;30.28
73673;BMP280;61972;19.480;-99.240;2024-03-02T10:08:01;77831.84;;;30.28
73673;BMP280;61972;19.480;-99.240;2024-03-02T10:10:38;77829.31;;;30.30
73673;BMP280;61972;19.480;-99.240;2024-03-02T10:13:10;77829.59;;;30.35
73673;BMP280;61972;19.480;-99.240;2024-03-02T10:15:37;77832.59;;;30.43
73673;BMP280;61972;19.480;-99.240;2024-03-02T10:18:04;77821.78;;;30.48
73673;BMP280;61972;19.480;-99.240;2024-03-02T10:20:30;77820.06;;;30.56
73673;BMP280;61972;19.480;-99.240;2024-03-02T10:23:11;77820.31;;;30.61
73673;BMP280;61972;19.480;-99.240;2024-03-02T10:25:38;77816.84;;;30.65
73673;BMP280;61972;19.480;-99.240;2024-03-02T10:28:04;77819.19;;;30.70
73673;BMP280;61972;19.480;-99.240;2024-03-02T10:30:34;77820.41;;;30.73
73673;BMP280;61972;19.480;-99.240;2024-03-02T10:33:02;77819.41;;;30.75
73673;BMP280;61972;19.480;-99.240;2024-03-02T10:35:28;77816.78;;;30.75
73673;BMP280;61972;19.480;-99.240;2024-03-02T10:37:58;77815.13;;;30.73
73673;BMP280;61972;19.480;-99.240;2024-03-02T10:40:24;77816.66;;;30.72
73673;BMP280;61972;19.480;-99.240;2024-03-02T10:42:52;77816.53;;;30.70
73673;BMP280;61972;19.480;-99.240;2024-03-02T10:45:20;77822.78;;;30.68
73673;BMP280;61972;19.480;-99.240;2024-03-02T10:47:55;77812.53;;;30.64
73673;BMP280;61972;19.480;-99.240;2024-03-02T10:50:21;77816.03;;;30.60
73673;BMP280;61972;19.480;-99.240;2024-03-02T10:52:48;77814.25;;;30.55
73673;BMP280;61972;19.480;-99.240;2024-03-02T10:55:14;77824.66;;;30.53
73673;BMP280;61972;19.480;-99.240;2024-03-02T10:57:51;77823.56;;;30.52
73673;BMP280;61972;19.480;-99.240;2024-03-02T11:00:19;77833.00;;;30.51
73673;BMP280;61972;19.480;-99.240;2024-03-02T11:02:58;77832.03;;;30.52
73673;BMP280;61972;19.480;-99.240;2024-03-02T11:05:31;77840.63;;;30.55
73673;BMP280;61972;19.480;-99.240;2024-03-02T11:08:00;77845.91;;;30.55
73673;BMP280;61972;19.480;-99.240;2024-03-02T11:13:27;77843.13;;;30.53
73673;BMP280;61972;19.480;-99.240;2024-03-02T11:16:00;77841.47;;;30.51
73673;BMP280;61972;19.480;-99.240;2024-03-02T11:18:30;77840.78;;;30.48
73673;BMP280;61972;19.480;-99.240;2024-03-02T11:20:57;77843.28;;;30.46
73673;BMP280;61972;19.480;-99.240;2024-03-02T11:23:34;77835.09;;;30.41
73673;BMP280;61972;19.480;-99.240;2024-03-02T11:26:20;77843.88;;;30.37
73673;BMP280;61972;19.480;-99.240;2024-03-02T11:28:47;77839.44;;;30.32
73673;BMP280;61972;19.480;-99.240;2024-03-02T11:31:13;77844.88;;;30.25
73673;BMP280;61972;19.480;-99.240;2024-03-02T11:33:39;77845.72;;;30.21
73673;BMP280;61972;19.480;-99.240;2024-03-02T11:36:09;77846.97;;;30.15
73673;BMP280;61972;19.480;-99.240;2024-03-02T11:38:35;77852.13;;;30.12
73673;BMP280;61972;19.480;-99.240;2024-03-02T11:41:05;77851.56;;;30.12
73673;BMP280;61972;19.480;-99.240;2024-03-02T11:43:33;77848.50;;;30.14
73673;BMP280;61972;19.480;-99.240;2024-03-02T11:46:00;77844.59;;;30.20
73673;BMP280;61972;19.480;-99.240;2024-03-02T11:48:30;77847.94;;;30.23
73673;BMP280;61972;19.480;-99.240;2024-03-02T11:50:58;77849.03;;;30.24
73673;BMP280;61972;19.480;-99.240;2024-03-02T11:53:28;77840.16;;;30.26
73673;BMP280;61972;19.480;-99.240;2024-03-02T11:55:58;77848.47;;;30.33
73673;BMP280;61972;19.480;-99.240;2024-03-02T11:58:24;77848.44;;;30.43
73673;BMP280;61972;19.480;-99.240;2024-03-02T12:00:55;77848.38;;;30.53
73673;BMP280;61972;19.480;-99.240;2024-03-02T12:03:25;77845.59;;;30.60
73673;BMP280;61972;19.480;-99.240;2024-03-02T12:05:55;77841.66;;;30.66
73673;BMP280;61972;19.480;-99.240;2024-03-02T12:08:21;77851.50;;;30.73
73673;BMP280;61972;19.480;-99.240;2024-03-02T12:10:59;77850.25;;;30.79
73673;BMP280;61972;19.480;-99.240;2024-03-02T12:13:26;77858.53;;;30.87
73673;BMP280;61972;19.480;-99.240;2024-03-02T12:15:55;77862.09;;;30.95
73673;BMP280;61972;19.480;-99.240;2024-03-02T12:18:22;77859.97;;;31.05
73673;BMP280;61972;19.480;-99.240;2024-03-02T12:20:49;77857.16;;;31.12
73673;BMP280;61972;19.480;-99.240;2024-03-02T12:23:18;77865.38;;;31.18
73673;BMP280;61972;19.480;-99.240;2024-03-02T12:25:45;77860.88;;;31.23
73673;BMP280;61972;19.480;-99.240;2024-03-02T12:28:12;77865.41;;;31.30
73673;BMP280;61972;19.480;-99.240;2024-03-02T12:30:38;77865.53;;;31.32
73673;BMP280;61972;19.480;-99.240;2024-03-02T12:33:05;77868.84;;;31.36
73673;BMP280;61972;19.480;-99.240;2024-03-02T12:35:31;77870.09;;;31.39
73673;BMP280;61972;19.480;-99.240;2024-03-02T12:37:57;77870.34;;;31.44
73673;BMP280;61972;19.480;-99.240;2024-03-02T12:40:24;77882.94;;;31.54
73673;BMP280;61972;19.480;-99.240;2024-03-02T12:42:50;77890.66;;;31.61
73673;BMP280;61972;19.480;-99.240;2024-03-02T12:45:17;77888.69;;;31.64
73673;BMP280;61972;19.480;-99.240;2024-03-02T12:47:49;77886.75;;;31.67
73673;BMP280;61972;19.480;-99.240;2024-03-02T12:50:18;77900.63;;;31.70
73673;BMP280;61972;19.480;-99.240;2024-03-02T12:52:51;77903.72;;;31.68
73673;BMP280;61972;19.480;-99.240;2024-03-02T12:55:18;77915.22;;;31.66
73673;BMP280;61972;19.480;-99.240;2024-03-02T12:57:44;77914.69;;;31.66
73673;BMP280;61972;19.480;-99.240;2024-03-02T13:00:10;77910.94;;;31.65
73673;BMP280;61972;19.480;-99.240;2024-03-02T13:02:41;77915.13;;;31.64
73673;BMP280;61972;19.480;-99.240;2024-03-02T13:05:08;77910.25;;;31.62
73673;BMP280;61972;19.480;-99.240;2024-03-02T13:07:40;77917.50;;;31.59
73673;BMP280;61972;19.480;-99.240;2024-03-02T13:10:07;77923.25;;;31.57
73673;BMP280;61972;19.480;-99.240;2024-03-02T13:12:35;77918.22;;;31.52
73673;BMP280;61972;19.480;-99.240;2024-03-02T13:15:03;77931.09;;;31.44
73673;BMP280;61972;19.480;-99.240;2024-03-02T13:17:29;77936.44;;;31.35
73673;BMP280;61972;19.480;-99.240;2024-03-02T13:19:59;77930.63;;;31.24
73673;BMP280;61972;19.480;-99.240;2024-03-02T13:22:26;77937.91;;;31.11
73673;BMP280;61972;19.480;-99.240;2024-03-02T13:24:53;77943.09;;;30.99
73673;BMP280;61972;19.480;-99.240;2024-03-02T13:27:22;77943.00;;;30.87
73673;BMP280;61972;19.480;-99.240;2024-03-02T13:29:49;77951.91;;;30.76
73673;BMP280;61972;19.480;-99.240;2024-03-02T13:32:16;77953.34;;;30.62
73673;BMP280;61972;19.480;-99.240;2024-03-02T13:34:42;77949.47;;;30.49
73673;BMP280;61972;19.480;-99.240;2024-03-02T13:37:09;77956.16;;;30.35
73673;BMP280;61972;19.480;-99.240;2024-03-02T13:39:35;77953.94;;;30.24
73673;BMP280;61972;19.480;-99.240;2024-03-02T13:42:08;77958.53;;;30.11
73673;BMP280;61972;19.480;-99.240;2024-03-02T13:44:35;77959.50;;;30.00
73673;BMP280;61972;19.480;-99.240;2024-03-02T13:47:02;77961.00;;;29.89
73673;BMP280;61972;19.480;-99.240;2024-03-02T13:49:28;77958.38;;;29.79
73673;BMP280;61972;19.480;-99.240;2024-03-02T13:52:08;77959.75;;;29.66
73673;BMP280;61972;19.480;-99.240;2024-03-02T13:54:39;77960.28;;;29.56
73673;BMP280;61972;19.480;-99.240;2024-03-02T13:57:08;77964.53;;;29.48
73673;BMP280;61972;19.480;-99.240;2024-03-02T13:59:35;77971.88;;;29.38
73673;BMP280;61972;19.480;-99.240;2024-03-02T14:02:08;77974.63;;;29.31
73673;BMP280;61972;19.480;-99.240;2024-03-02T14:04:35;77978.47;;;29.25
73673;BMP280;61972;19.480;-99.240;2024-03-02T14:07:02;77973.34;;;29.17
73673;BMP280;61972;19.480;-99.240;2024-03-02T14:09:28;77974.03;;;29.11
73673;BMP280;61972;19.480;-99.240;2024-03-02T14:11:55;77987.84;;;29.04
73673;BMP280;61972;19.480;-99.240;2024-03-02T14:14:21;77979.66;;;28.99
73673;BMP280;61972;19.480;-99.240;2024-03-02T14:16:48;77982.94;;;28.92
73673;BMP280;61972;19.480;-99.240;2024-03-02T14:19:14;77983.06;;;28.85